sensor_id;sensor_type;location;lat;lon;timestamp;P1;durP1;ratioP1;P2;durP2;ratioP2
18931;SDS011;9598;50.954;3.112;2022-10-31T00:01:50;5.43;;;4.72;;
18931;SDS011;9598;50.954;3.112;2022-10-31T00:06:53;5.15;;;4.72;;
18931;SDS011;9598;50.954;3.112;2022-10-31T00:11:55;5.88;;;4.95;;
18931;SDS011;9598;50.954;3.112;2022-10-31T00:16:57;7.00;;;5.55;;
18931;SDS011;9598;50.954;3.112;2022-10-31T00:22:01;6.10;;;5.15;;
18931;SDS011;9598;50.954;3.112;2022-10-31T00:27:03;5.75;;;5.25;;
18931;SDS011;9598;50.954;3.112;2022-10-31T00:32:05;6.35;;;5.78;;
18931;SDS011;9598;50.954;3.112;2022-10-31T00:37:08;5.95;;;5.10;;
18931;SDS011;9598;50.954;3.112;2022-10-31T00:42:10;6.45;;;5.70;;
18931;SDS011;9598;50.954;3.112;2022-10-31T00:47:12;6.18;;;5.07;;
18931;SDS011;9598;50.954;3.112;2022-10-31T00:52:16;6.47;;;5.88;;
18931;SDS011;9598;50.954;3.112;2022-10-31T00:57:18;5.85;;;5.25;;
18931;SDS011;9598;50.954;3.112;2022-10-31T01:02:21;5.63;;;5.10;;
18931;SDS011;9598;50.954;3.112;2022-10-31T01:07:24;5.22;;;4.82;;
18931;SDS011;9598;50.954;3.112;2022-10-31T01:12:26;5.50;;;5.00;;
18931;SDS011;9598;50.954;3.112;2022-10-31T01:17:28;5.45;;;4.95;;
18931;SDS011;9598;50.954;3.112;2022-10-31T01:22:31;5.53;;;5.03;;
18931;SDS011;9598;50.954;3.112;2022-10-31T01:27:34;6.47;;;5.45;;
18931;SDS011;9598;50.954;3.112;2022-10-31T01:32:36;5.97;;;4.97;;
18931;SDS011;9598;50.954;3.112;2022-10-31T01:37:40;7.55;;;5.95;;
18931;SDS011;9598;50.954;3.112;2022-10-31T01:42:42;6.78;;;5.60;;
18931;SDS011;9598;50.954;3.112;2022-10-31T01:47:44;6.15;;;5.55;;
18931;SDS011;9598;50.954;3.112;2022-10-31T01:52:49;6.35;;;5.75;;
18931;SDS011;9598;50.954;3.112;2022-10-31T01:57:53;6.20;;;5.22;;
18931;SDS011;9598;50.954;3.112;2022-10-31T02:02:58;5.68;;;5.07;;
18931;SDS011;9598;50.954;3.112;2022-10-31T02:08:03;5.47;;;4.97;;
18931;SDS011;9598;50.954;3.112;2022-10-31T02:13:09;6.32;;;5.68;;
18931;SDS011;9598;50.954;3.112;2022-10-31T02:18:18;7.63;;;6.07;;
18931;SDS011;9598;50.954;3.112;2022-10-31T02:23:30;7.88;;;5.93;;
18931;SDS011;9598;50.954;3.112;2022-10-31T02:34:20;6.82;;;5.88;;
18931;SDS011;9598;50.954;3.112;2022-10-31T02:39:25;7.70;;;6.13;;
18931;SDS011;9598;50.954;3.112;2022-10-31T02:44:34;6.18;;;5.57;;
18931;SDS011;9598;50.954;3.112;2022-10-31T02:49:42;7.15;;;5.75;;
18931;SDS011;9598;50.954;3.112;2022-10-31T02:54:47;6.50;;;5.60;;
18931;SDS011;9598;50.954;3.112;2022-10-31T02:59:51;6.30;;;5.70;;
18931;SDS011;9598;50.954;3.112;2022-10-31T03:10:31;6.70;;;5.70;;
18931;SDS011;9598;50.954;3.112;2022-10-31T03:15:42;7.30;;;6.13;;
18931;SDS011;9598;50.954;3.112;2022-10-31T03:20:50;5.85;;;5.35;;
18931;SDS011;9598;50.954;3.112;2022-10-31T03:25:57;7.03;;;6.20;;
18931;SDS011;9598;50.954;3.112;2022-10-31T03:31:04;8.07;;;7.28;;
18931;SDS011;9598;50.954;3.112;2022-10-31T03:36:13;7.85;;;7.10;;
18931;SDS011;9598;50.954;3.112;2022-10-31T03:41:18;9.00;;;7.13;;
18931;SDS011;9598;50.954;3.112;2022-10-31T03:46:22;8.25;;;7.43;;
18931;SDS011;9598;50.954;3.112;2022-10-31T03:51:30;8.65;;;7.78;;
18931;SDS011;9598;50.954;3.112;2022-10-31T03:56:40;11.07;;;7.03;;
18931;SDS011;9598;50.954;3.112;2022-10-31T04:01:48;7.20;;;6.40;;
18931;SDS011;9598;50.954;3.112;2022-10-31T04:06:55;7.85;;;7.05;;
18931;SDS011;9598;50.954;3.112;2022-10-31T04:12:02;6.60;;;6.00;;
18931;SDS011;9598;50.954;3.112;2022-10-31T04:17:29;7.22;;;6.53;;
18931;SDS011;9598;50.954;3.112;2022-10-31T04:22:43;7.25;;;6.55;;
18931;SDS011;9598;50.954;3.112;2022-10-31T04:27:45;7.47;;;6.47;;
18931;SDS011;9598;50.954;3.112;2022-10-31T04:32:47;7.60;;;6.45;;
18931;SDS011;9598;50.954;3.112;2022-10-31T04:37:50;7.85;;;6.55;;
18931;SDS011;9598;50.954;3.112;2022-10-31T04:42:53;8.45;;;6.65;;
18931;SDS011;9598;50.954;3.112;2022-10-31T04:47:55;8.80;;;6.97;;
18931;SDS011;9598;50.954;3.112;2022-10-31T04:52:59;7.72;;;6.95;;
18931;SDS011;9598;50.954;3.112;2022-10-31T04:58:05;6.68;;;6.07;;
18931;SDS011;9598;50.954;3.112;2022-10-31T05:03:07;6.32;;;5.72;;
18931;SDS011;9598;50.954;3.112;2022-10-31T05:08:11;7.90;;;6.15;;
18931;SDS011;9598;50.954;3.112;2022-10-31T05:13:13;7.13;;;6.43;;
18931;SDS011;9598;50.954;3.112;2022-10-31T05:18:34;7.18;;;6.47;;
18931;SDS011;9598;50.954;3.112;2022-10-31T05:23:56;7.07;;;6.38;;
18931;SDS011;9598;50.954;3.112;2022-10-31T05:28:58;7.63;;;6.05;;
18931;SDS011;9598;50.954;3.112;2022-10-31T05:34:02;7.43;;;6.03;;
18931;SDS011;9598;50.954;3.112;2022-10-31T05:39:20;7.13;;;6.50;;
18931;SDS011;9598;50.954;3.112;2022-10-31T05:44:27;7.82;;;6.70;;
18931;SDS011;9598;50.954;3.112;2022-10-31T05:49:48;7.38;;;6.68;;
18931;SDS011;9598;50.954;3.112;2022-10-31T05:55:10;7.80;;;6.88;;
18931;SDS011;9598;50.954;3.112;2022-10-31T06:00:17;7.80;;;6.75;;
18931;SDS011;9598;50.954;3.112;2022-10-31T06:05:22;7.20;;;6.50;;
18931;SDS011;9598;50.954;3.112;2022-10-31T06:10:28;7.43;;;6.70;;
18931;SDS011;9598;50.954;3.112;2022-10-31T06:15:30;7.00;;;6.30;;
18931;SDS011;9598;50.954;3.112;2022-10-31T06:20:33;7.70;;;6.90;;
18931;SDS011;9598;50.954;3.112;2022-10-31T06:25:38;7.65;;;6.97;;
18931;SDS011;9598;50.954;3.112;2022-10-31T06:30:42;8.90;;;8.10;;
18931;SDS011;9598;50.954;3.112;2022-10-31T06:35:45;9.13;;;8.23;;
18931;SDS011;9598;50.954;3.112;2022-10-31T06:40:50;8.93;;;8.02;;
18931;SDS011;9598;50.954;3.112;2022-10-31T06:45:57;9.57;;;8.57;;
18931;SDS011;9598;50.954;3.112;2022-10-31T06:51:14;8.55;;;7.82;;
18931;SDS011;9598;50.954;3.112;2022-10-31T06:56:17;8.05;;;7.28;;
18931;SDS011;9598;50.954;3.112;2022-10-31T07:01:27;8.25;;;7.45;;
18931;SDS011;9598;50.954;3.112;2022-10-31T07:06:29;8.75;;;7.20;;
18931;SDS011;9598;50.954;3.112;2022-10-31T07:11:32;9.25;;;7.95;;
18931;SDS011;9598;50.954;3.112;2022-10-31T07:16:35;10.68;;;8.25;;
18931;SDS011;9598;50.954;3.112;2022-10-31T07:21:38;10.70;;;8.10;;
18931;SDS011;9598;50.954;3.112;2022-10-31T07:26:43;10.32;;;8.65;;
18931;SDS011;9598;50.954;3.112;2022-10-31T07:31:47;9.73;;;8.70;;
18931;SDS011;9598;50.954;3.112;2022-10-31T07:36:56;10.95;;;8.57;;
18931;SDS011;9598;50.954;3.112;2022-10-31T07:41:59;10.35;;;9.25;;
18931;SDS011;9598;50.954;3.112;2022-10-31T07:47:02;11.18;;;9.40;;
18931;SDS011;9598;50.954;3.112;2022-10-31T07:52:40;12.48;;;11.10;;
18931;SDS011;9598;50.954;3.112;2022-10-31T07:58:13;14.13;;;11.07;;
18931;SDS011;9598;50.954;3.112;2022-10-31T08:03:17;14.73;;;11.90;;
18931;SDS011;9598;50.954;3.112;2022-10-31T08:08:29;13.93;;;12.05;;
18931;SDS011;9598;50.954;3.112;2022-10-31T08:13:34;15.82;;;12.18;;
18931;SDS011;9598;50.954;3.112;2022-10-31T08:18:36;15.75;;;12.57;;
18931;SDS011;9598;50.954;3.112;2022-10-31T08:23:40;16.33;;;13.30;;
18931;SDS011;9598;50.954;3.112;2022-10-31T08:28:44;14.23;;;12.48;;
18931;SDS011;9598;50.954;3.112;2022-10-31T08:33:47;14.98;;;12.85;;
18931;SDS011;9598;50.954;3.112;2022-10-31T08:38:52;17.92;;;13.63;;
18931;SDS011;9598;50.954;3.112;2022-10-31T08:43:56;17.88;;;14.52;;
18931;SDS011;9598;50.954;3.112;2022-10-31T08:48:58;17.77;;;13.02;;
18931;SDS011;9598;50.954;3.112;2022-10-31T08:54:00;18.15;;;14.07;;
18931;SDS011;9598;50.954;3.112;2022-10-31T08:59:22;14.90;;;13.15;;
18931;SDS011;9598;50.954;3.112;2022-10-31T09:04:43;17.27;;;12.23;;
18931;SDS011;9598;50.954;3.112;2022-10-31T09:09:45;15.40;;;13.48;;
18931;SDS011;9598;50.954;3.112;2022-10-31T09:14:50;18.10;;;13.68;;
18931;SDS011;9598;50.954;3.112;2022-10-31T09:19:57;17.25;;;13.18;;
18931;SDS011;9598;50.954;3.112;2022-10-31T09:25:05;14.20;;;12.20;;
18931;SDS011;9598;50.954;3.112;2022-10-31T09:30:10;19.10;;;12.38;;
18931;SDS011;9598;50.954;3.112;2022-10-31T09:35:13;17.58;;;12.55;;
18931;SDS011;9598;50.954;3.112;2022-10-31T09:40:15;13.57;;;11.98;;
18931;SDS011;9598;50.954;3.112;2022-10-31T09:45:21;17.10;;;11.95;;
18931;SDS011;9598;50.954;3.112;2022-10-31T09:50:31;16.90;;;11.90;;
18931;SDS011;9598;50.954;3.112;2022-10-31T09:56:06;17.08;;;11.73;;
18931;SDS011;9598;50.954;3.112;2022-10-31T10:01:20;17.13;;;12.48;;
18931;SDS011;9598;50.954;3.112;2022-10-31T10:06:32;13.45;;;11.55;;
18931;SDS011;9598;50.954;3.112;2022-10-31T10:11:59;15.55;;;11.55;;
18931;SDS011;9598;50.954;3.112;2022-10-31T10:17:12;13.73;;;12.32;;
18931;SDS011;9598;50.954;3.112;2022-10-31T10:22:25;13.90;;;11.50;;
18931;SDS011;9598;50.954;3.112;2022-10-31T10:27:41;13.30;;;11.90;;
18931;SDS011;9598;50.954;3.112;2022-10-31T10:32:52;11.48;;;10.38;;
18931;SDS011;9598;50.954;3.112;2022-10-31T10:37:58;12.55;;;11.15;;
18931;SDS011;9598;50.954;3.112;2022-10-31T10:43:19;13.18;;;11.00;;
18931;SDS011;9598;50.954;3.112;2022-10-31T10:48:27;11.88;;;10.60;;
18931;SDS011;9598;50.954;3.112;2022-10-31T10:53:39;11.52;;;10.43;;
18931;SDS011;9598;50.954;3.112;2022-10-31T10:59:00;12.90;;;11.57;;
18931;SDS011;9598;50.954;3.112;2022-10-31T11:04:07;12.48;;;11.18;;
18931;SDS011;9598;50.954;3.112;2022-10-31T11:09:25;12.27;;;10.10;;
18931;SDS011;9598;50.954;3.112;2022-10-31T11:14:27;12.40;;;10.85;;
18931;SDS011;9598;50.954;3.112;2022-10-31T11:19:31;13.68;;;10.13;;
18931;SDS011;9598;50.954;3.112;2022-10-31T11:24:36;13.13;;;11.35;;
18931;SDS011;9598;50.954;3.112;2022-10-31T11:29:39;12.15;;;10.45;;
18931;SDS011;9598;50.954;3.112;2022-10-31T11:34:43;11.68;;;10.30;;
18931;SDS011;9598;50.954;3.112;2022-10-31T11:39:49;10.23;;;8.95;;
18931;SDS011;9598;50.954;3.112;2022-10-31T11:44:54;10.32;;;8.50;;
18931;SDS011;9598;50.954;3.112;2022-10-31T11:49:59;9.57;;;7.60;;
18931;SDS011;9598;50.954;3.112;2022-10-31T11:55:16;7.78;;;6.78;;
18931;SDS011;9598;50.954;3.112;2022-10-31T12:00:33;9.68;;;6.25;;
18931;SDS011;9598;50.954;3.112;2022-10-31T12:05:39;7.50;;;5.85;;
18931;SDS011;9598;50.954;3.112;2022-10-31T12:10:47;8.00;;;5.32;;
18931;SDS011;9598;50.954;3.112;2022-10-31T12:15:57;6.63;;;6.00;;
18931;SDS011;9598;50.954;3.112;2022-10-31T12:21:07;7.72;;;6.60;;
18931;SDS011;9598;50.954;3.112;2022-10-31T12:26:23;10.38;;;7.93;;
18931;SDS011;9598;50.954;3.112;2022-10-31T12:31:35;8.18;;;6.78;;
18931;SDS011;9598;50.954;3.112;2022-10-31T12:36:49;9.13;;;6.97;;
18931;SDS011;9598;50.954;3.112;2022-10-31T12:42:02;9.68;;;7.13;;
18931;SDS011;9598;50.954;3.112;2022-10-31T12:53:00;9.00;;;6.95;;
18931;SDS011;9598;50.954;3.112;2022-10-31T12:58:17;8.85;;;7.80;;
18931;SDS011;9598;50.954;3.112;2022-10-31T13:03:25;9.85;;;8.65;;
18931;SDS011;9598;50.954;3.112;2022-10-31T13:08:33;10.43;;;9.30;;
18931;SDS011;9598;50.954;3.112;2022-10-31T13:13:42;11.15;;;9.95;;
18931;SDS011;9598;50.954;3.112;2022-10-31T13:18:57;12.68;;;10.35;;
18931;SDS011;9598;50.954;3.112;2022-10-31T13:24:03;11.93;;;10.68;;
18931;SDS011;9598;50.954;3.112;2022-10-31T13:29:13;13.32;;;10.43;;
18931;SDS011;9598;50.954;3.112;2022-10-31T13:34:22;11.93;;;10.73;;
18931;SDS011;9598;50.954;3.112;2022-10-31T13:39:31;14.57;;;10.68;;
18931;SDS011;9598;50.954;3.112;2022-10-31T13:44:41;11.40;;;10.30;;
18931;SDS011;9598;50.954;3.112;2022-10-31T13:49:43;13.85;;;10.95;;
18931;SDS011;9598;50.954;3.112;2022-10-31T13:54:47;12.55;;;10.55;;
18931;SDS011;9598;50.954;3.112;2022-10-31T13:59:56;12.70;;;10.07;;
18931;SDS011;9598;50.954;3.112;2022-10-31T14:05:00;10.82;;;9.77;;
18931;SDS011;9598;50.954;3.112;2022-10-31T14:10:16;11.63;;;10.15;;
18931;SDS011;9598;50.954;3.112;2022-10-31T14:15:24;14.70;;;11.18;;
18931;SDS011;9598;50.954;3.112;2022-10-31T14:20:32;15.10;;;10.82;;
18931;SDS011;9598;50.954;3.112;2022-10-31T14:25:39;37.05;;;20.55;;
18931;SDS011;9598;50.954;3.112;2022-10-31T14:30:50;14.05;;;11.57;;
18931;SDS011;9598;50.954;3.112;2022-10-31T14:35:55;15.65;;;11.23;;
18931;SDS011;9598;50.954;3.112;2022-10-31T14:41:14;15.68;;;10.45;;
18931;SDS011;9598;50.954;3.112;2022-10-31T14:46:30;14.45;;;11.93;;
18931;SDS011;9598;50.954;3.112;2022-10-31T14:51:41;14.45;;;12.18;;
18931;SDS011;9598;50.954;3.112;2022-10-31T14:56:49;16.23;;;12.85;;
18931;SDS011;9598;50.954;3.112;2022-10-31T15:01:56;14.85;;;12.95;;
18931;SDS011;9598;50.954;3.112;2022-10-31T15:07:02;15.02;;;13.02;;
18931;SDS011;9598;50.954;3.112;2022-10-31T15:12:23;14.38;;;12.30;;
18931;SDS011;9598;50.954;3.112;2022-10-31T15:17:27;16.50;;;13.32;;
18931;SDS011;9598;50.954;3.112;2022-10-31T15:22:29;15.23;;;13.52;;
18931;SDS011;9598;50.954;3.112;2022-10-31T15:27:34;17.92;;;13.43;;
18931;SDS011;9598;50.954;3.112;2022-10-31T15:32:37;19.38;;;14.95;;
18931;SDS011;9598;50.954;3.112;2022-10-31T15:37:46;19.25;;;15.32;;
18931;SDS011;9598;50.954;3.112;2022-10-31T15:42:50;19.10;;;15.00;;
18931;SDS011;9598;50.954;3.112;2022-10-31T15:47:55;16.25;;;14.57;;
18931;SDS011;9598;50.954;3.112;2022-10-31T15:52:59;18.67;;;14.32;;
18931;SDS011;9598;50.954;3.112;2022-10-31T15:58:03;19.30;;;14.75;;
18931;SDS011;9598;50.954;3.112;2022-10-31T16:03:22;19.95;;;14.45;;
18931;SDS011;9598;50.954;3.112;2022-10-31T16:08:31;20.73;;;15.38;;
18931;SDS011;9598;50.954;3.112;2022-10-31T16:13:36;18.45;;;14.40;;
18931;SDS011;9598;50.954;3.112;2022-10-31T16:18:41;18.73;;;14.90;;
18931;SDS011;9598;50.954;3.112;2022-10-31T16:23:44;20.33;;;17.00;;
18931;SDS011;9598;50.954;3.112;2022-10-31T16:28:54;21.33;;;16.08;;
18931;SDS011;9598;50.954;3.112;2022-10-31T16:34:01;19.90;;;16.08;;
18931;SDS011;9598;50.954;3.112;2022-10-31T16:39:14;22.52;;;16.48;;
18931;SDS011;9598;50.954;3.112;2022-10-31T16:44:19;19.27;;;17.02;;
18931;SDS011;9598;50.954;3.112;2022-10-31T16:49:24;18.60;;;15.38;;
18931;SDS011;9598;50.954;3.112;2022-10-31T16:54:26;16.98;;;14.48;;
18931;SDS011;9598;50.954;3.112;2022-10-31T16:59:32;16.65;;;14.70;;
18931;SDS011;9598;50.954;3.112;2022-10-31T17:04:35;17.13;;;15.05;;
18931;SDS011;9598;50.954;3.112;2022-10-31T17:09:37;17.67;;;14.88;;
18931;SDS011;9598;50.954;3.112;2022-10-31T17:14:41;18.30;;;15.15;;
18931;SDS011;9598;50.954;3.112;2022-10-31T17:19:44;15.25;;;13.50;;
18931;SDS011;9598;50.954;3.112;2022-10-31T17:24:46;18.65;;;14.73;;
18931;SDS011;9598;50.954;3.112;2022-10-31T17:29:50;16.83;;;13.45;;
18931;SDS011;9598;50.954;3.112;2022-10-31T17:34:52;16.45;;;13.85;;
18931;SDS011;9598;50.954;3.112;2022-10-31T17:39:55;18.45;;;13.23;;
18931;SDS011;9598;50.954;3.112;2022-10-31T17:44:58;15.63;;;12.80;;
18931;SDS011;9598;50.954;3.112;2022-10-31T17:50:00;15.20;;;13.02;;
18931;SDS011;9598;50.954;3.112;2022-10-31T17:55:03;16.60;;;12.80;;
18931;SDS011;9598;50.954;3.112;2022-10-31T18:00:08;18.60;;;12.90;;
18931;SDS011;9598;50.954;3.112;2022-10-31T18:05:12;16.38;;;11.88;;
18931;SDS011;9598;50.954;3.112;2022-10-31T18:10:14;15.40;;;11.85;;
18931;SDS011;9598;50.954;3.112;2022-10-31T18:15:17;18.10;;;11.90;;
18931;SDS011;9598;50.954;3.112;2022-10-31T18:20:20;15.27;;;11.13;;
18931;SDS011;9598;50.954;3.112;2022-10-31T18:25:22;13.57;;;10.95;;
18931;SDS011;9598;50.954;3.112;2022-10-31T18:30:25;14.68;;;10.45;;
18931;SDS011;9598;50.954;3.112;2022-10-31T18:35:28;15.55;;;11.43;;
18931;SDS011;9598;50.954;3.112;2022-10-31T18:40:30;16.92;;;11.52;;
18931;SDS011;9598;50.954;3.112;2022-10-31T18:45:34;14.02;;;10.90;;
18931;SDS011;9598;50.954;3.112;2022-10-31T18:50:38;15.13;;;11.27;;
18931;SDS011;9598;50.954;3.112;2022-10-31T18:55:41;16.20;;;11.25;;
18931;SDS011;9598;50.954;3.112;2022-10-31T19:00:45;14.02;;;10.35;;
18931;SDS011;9598;50.954;3.112;2022-10-31T19:05:47;12.45;;;10.15;;
18931;SDS011;9598;50.954;3.112;2022-10-31T19:10:49;17.92;;;10.13;;
18931;SDS011;9598;50.954;3.112;2022-10-31T19:15:53;11.07;;;8.88;;
18931;SDS011;9598;50.954;3.112;2022-10-31T19:20:55;14.23;;;9.20;;
18931;SDS011;9598;50.954;3.112;2022-10-31T19:25:57;12.45;;;9.25;;
18931;SDS011;9598;50.954;3.112;2022-10-31T19:31:00;12.15;;;10.05;;
18931;SDS011;9598;50.954;3.112;2022-10-31T19:36:03;16.60;;;9.40;;
18931;SDS011;9598;50.954;3.112;2022-10-31T19:41:09;11.60;;;8.73;;
18931;SDS011;9598;50.954;3.112;2022-10-31T19:46:15;13.65;;;9.13;;
18931;SDS011;9598;50.954;3.112;2022-10-31T19:51:19;12.85;;;9.68;;
18931;SDS011;9598;50.954;3.112;2022-10-31T19:56:22;13.45;;;9.45;;
18931;SDS011;9598;50.954;3.112;2022-10-31T20:01:26;12.57;;;9.10;;
18931;SDS011;9598;50.954;3.112;2022-10-31T20:06:29;14.20;;;9.48;;
18931;SDS011;9598;50.954;3.112;2022-10-31T20:11:32;15.98;;;10.45;;
18931;SDS011;9598;50.954;3.112;2022-10-31T20:16:38;14.85;;;9.88;;
18931;SDS011;9598;50.954;3.112;2022-10-31T20:21:40;13.70;;;8.68;;
18931;SDS011;9598;50.954;3.112;2022-10-31T20:26:43;10.73;;;8.27;;
18931;SDS011;9598;50.954;3.112;2022-10-31T20:31:49;10.73;;;8.40;;
18931;SDS011;9598;50.954;3.112;2022-10-31T20:36:51;10.90;;;8.20;;
18931;SDS011;9598;50.954;3.112;2022-10-31T20:41:53;15.82;;;8.68;;
18931;SDS011;9598;50.954;3.112;2022-10-31T20:46:56;11.18;;;8.38;;
18931;SDS011;9598;50.954;3.112;2022-10-31T20:51:58;14.48;;;9.30;;
18931;SDS011;9598;50.954;3.112;2022-10-31T20:57:00;13.52;;;9.15;;
18931;SDS011;9598;50.954;3.112;2022-10-31T21:02:04;10.77;;;8.00;;
18931;SDS011;9598;50.954;3.112;2022-10-31T21:07:06;12.00;;;9.18;;
18931;SDS011;9598;50.954;3.112;2022-10-31T21:12:08;12.23;;;8.98;;
18931;SDS011;9598;50.954;3.112;2022-10-31T21:17:12;10.57;;;8.60;;
18931;SDS011;9598;50.954;3.112;2022-10-31T21:22:14;13.20;;;9.50;;
18931;SDS011;9598;50.954;3.112;2022-10-31T21:27:16;13.07;;;8.88;;
18931;SDS011;9598;50.954;3.112;2022-10-31T21:32:19;16.85;;;9.00;;
18931;SDS011;9598;50.954;3.112;2022-10-31T21:37:21;14.80;;;9.13;;
18931;SDS011;9598;50.954;3.112;2022-10-31T21:42:23;10.18;;;8.80;;
18931;SDS011;9598;50.954;3.112;2022-10-31T21:47:27;12.32;;;8.80;;
18931;SDS011;9598;50.954;3.112;2022-10-31T21:52:29;12.07;;;8.15;;
18931;SDS011;9598;50.954;3.112;2022-10-31T21:57:31;14.85;;;7.47;;
18931;SDS011;9598;50.954;3.112;2022-10-31T22:02:34;14.10;;;8.50;;
18931;SDS011;9598;50.954;3.112;2022-10-31T22:07:36;9.48;;;7.28;;
18931;SDS011;9598;50.954;3.112;2022-10-31T22:12:38;8.00;;;6.18;;
18931;SDS011;9598;50.954;3.112;2022-10-31T22:17:42;8.88;;;7.15;;
18931;SDS011;9598;50.954;3.112;2022-10-31T22:22:45;10.43;;;8.00;;
18931;SDS011;9598;50.954;3.112;2022-10-31T22:27:47;9.73;;;7.97;;
18931;SDS011;9598;50.954;3.112;2022-10-31T22:32:50;12.63;;;7.90;;
18931;SDS011;9598;50.954;3.112;2022-10-31T22:37:53;12.20;;;8.57;;
18931;SDS011;9598;50.954;3.112;2022-10-31T22:42:55;12.68;;;8.57;;
18931;SDS011;9598;50.954;3.112;2022-10-31T22:47:58;11.20;;;8.13;;
18931;SDS011;9598;50.954;3.112;2022-10-31T22:53:00;7.53;;;6.20;;
18931;SDS011;9598;50.954;3.112;2022-10-31T22:58:02;9.88;;;6.68;;
18931;SDS011;9598;50.954;3.112;2022-10-31T23:03:06;8.13;;;6.38;;
18931;SDS011;9598;50.954;3.112;2022-10-31T23:08:08;9.18;;;6.68;;
18931;SDS011;9598;50.954;3.112;2022-10-31T23:13:10;11.90;;;6.70;;
18931;SDS011;9598;50.954;3.112;2022-10-31T23:18:31;6.65;;;5.88;;
18931;SDS011;9598;50.954;3.112;2022-10-31T23:23:34;7.15;;;6.45;;
18931;SDS011;9598;50.954;3.112;2022-10-31T23:28:37;7.97;;;5.90;;
18931;SDS011;9598;50.954;3.112;2022-10-31T23:33:41;7.60;;;6.38;;
18931;SDS011;9598;50.954;3.112;2022-10-31T23:38:42;7.90;;;5.88;;
18931;SDS011;9598;50.954;3.112;2022-10-31T23:43:44;8.55;;;6.57;;
18931;SDS011;9598;50.954;3.112;2022-10-31T23:48:49;8.27;;;5.82;;
18931;SDS011;9598;50.954;3.112;2022-10-31T23:53:52;9.52;;;6.75;;
18931;SDS011;9598;50.954;3.112;2022-10-31T23:58:54;9.00;;;6.03;;
